createdAt,value
2023-02-25T00:04:52.755Z,28.11
2023-02-25T00:09:59.921Z,27.58
2023-02-25T00:15:07.225Z,28.28
2023-02-25T00:20:14.402Z,28.25
2023-02-25T00:25:21.573Z,28.04
2023-02-25T00:30:28.796Z,27.81
2023-02-25T00:35:35.951Z,27.88
2023-02-25T00:40:43.145Z,27.86
2023-02-25T00:45:50.327Z,27.91
2023-02-25T00:50:57.504Z,27.93
2023-02-25T00:56:04.668Z,28.03
2023-02-25T01:01:11.893Z,27.99
2023-02-25T01:06:19.468Z,28.22
2023-02-25T01:11:26.327Z,28.27
2023-02-25T01:16:33.627Z,28.35
2023-02-25T01:21:40.702Z,27.85
2023-02-25T01:26:47.875Z,28.36
2023-02-25T01:31:55.355Z,28.27
2023-02-25T01:37:02.302Z,28.24
2023-02-25T01:42:09.432Z,28.04
2023-02-25T01:47:16.644Z,28.27
2023-02-25T01:52:23.911Z,28.15
2023-02-25T01:57:31.095Z,28.19
2023-02-25T02:02:38.366Z,28.07
2023-02-25T02:07:45.457Z,28.19
2023-02-25T02:12:52.763Z,28.00
2023-02-25T02:17:59.961Z,28.64
2023-02-25T02:23:07.167Z,29.12
2023-02-25T02:28:14.414Z,29.08
2023-02-25T02:33:21.624Z,29.02
2023-02-25T02:38:28.787Z,29.06
2023-02-25T02:43:35.950Z,29.41
2023-02-25T02:48:43.162Z,29.67
2023-02-25T02:53:50.325Z,29.59
2023-02-25T02:58:57.570Z,29.27
2023-02-25T03:04:04.945Z,29.53
2023-02-25T03:09:11.923Z,29.72
2023-02-25T03:14:19.181Z,30.02
2023-02-25T03:19:26.360Z,30.16
2023-02-25T03:24:33.548Z,29.99
2023-02-25T03:29:40.732Z,30.23
2023-02-25T03:34:47.942Z,30.40
2023-02-25T03:39:55.142Z,30.71
2023-02-25T03:45:02.369Z,30.53
2023-02-25T03:50:09.607Z,30.80
2023-02-25T03:55:16.733Z,31.01
2023-02-25T04:00:23.917Z,31.04
2023-02-25T04:05:31.131Z,31.19
2023-02-25T04:10:38.289Z,31.25
2023-02-25T04:15:45.497Z,31.23
2023-02-25T04:20:52.689Z,31.26
2023-02-25T04:25:59.827Z,31.46
2023-02-25T04:31:07.280Z,31.53
2023-02-25T04:36:14.225Z,31.56
2023-02-25T04:41:21.403Z,31.61
2023-02-25T04:46:28.600Z,31.73
2023-02-25T04:51:35.783Z,31.82
2023-02-25T04:56:42.955Z,31.85
2023-02-25T05:01:50.193Z,31.95
2023-02-25T05:06:57.363Z,31.86
2023-02-25T05:12:04.537Z,31.90
2023-02-25T05:17:11.711Z,31.93
2023-02-25T05:22:18.919Z,31.97
2023-02-25T05:27:26.098Z,31.92
2023-02-25T05:32:33.545Z,31.85
2023-02-25T05:37:40.580Z,31.87
2023-02-25T05:42:47.709Z,31.94
2023-02-25T05:47:54.927Z,32.05
2023-02-25T05:53:02.160Z,32.09
2023-02-25T05:58:09.387Z,32.14
2023-02-25T06:03:16.589Z,32.10
2023-02-25T06:08:23.782Z,32.15
2023-02-25T06:13:30.943Z,32.20
2023-02-25T06:18:38.122Z,32.24
2023-02-25T06:23:45.335Z,32.23
2023-02-25T06:28:52.492Z,31.96
2023-02-25T06:33:59.658Z,31.80
2023-02-25T06:39:06.889Z,31.79
2023-02-25T06:44:15.857Z,31.84
2023-02-25T06:49:21.204Z,32.16
2023-02-25T06:54:28.385Z,32.17
2023-02-25T06:59:35.565Z,32.18
2023-02-25T07:04:44.134Z,32.34
2023-02-25T07:09:49.965Z,32.34
2023-02-25T07:14:57.216Z,32.32
2023-02-25T07:20:04.412Z,32.35
2023-02-25T07:25:11.706Z,32.42
2023-02-25T07:30:18.782Z,32.46
2023-02-25T07:35:26.204Z,32.40
2023-02-25T07:40:33.474Z,32.47
2023-02-25T07:45:40.644Z,32.44
2023-02-25T07:50:47.884Z,32.35
2023-02-25T07:55:55.153Z,31.78
2023-02-25T08:01:02.310Z,31.40
2023-02-25T08:06:09.488Z,31.13
2023-02-25T08:11:16.671Z,31.03
2023-02-25T08:16:23.986Z,30.83
2023-02-25T08:21:31.054Z,30.88
2023-02-25T08:26:38.273Z,31.09
2023-02-25T08:31:45.618Z,31.22
2023-02-25T08:36:52.692Z,31.47
2023-02-25T08:41:59.902Z,31.89
2023-02-25T08:47:07.175Z,32.37
2023-02-25T08:52:14.248Z,32.61
2023-02-25T08:57:21.441Z,32.74
2023-02-25T09:02:28.605Z,32.80
2023-02-25T09:07:36.016Z,32.82
2023-02-25T09:12:43.219Z,32.76
2023-02-25T09:17:50.415Z,32.82
2023-02-25T09:22:57.660Z,32.78
2023-02-25T09:28:04.869Z,32.92
2023-02-25T09:33:12.149Z,32.96
2023-02-25T09:38:19.310Z,33.02
2023-02-25T09:43:26.586Z,32.26
2023-02-25T09:48:33.673Z,31.78
2023-02-25T09:53:40.859Z,31.55
2023-02-25T09:58:48.069Z,31.31
2023-02-25T10:03:55.231Z,31.31
2023-02-25T10:09:02.443Z,31.20
2023-02-25T10:14:09.764Z,31.04
2023-02-25T10:19:16.894Z,31.28
2023-02-25T10:24:24.088Z,30.77
2023-02-25T10:29:31.284Z,30.42
2023-02-25T10:34:38.440Z,30.07
2023-02-25T10:39:45.619Z,29.76
2023-02-25T10:44:52.865Z,29.57
2023-02-25T10:50:00.111Z,29.38
2023-02-25T10:55:07.286Z,29.14
2023-02-25T11:00:14.487Z,28.97
2023-02-25T11:05:21.690Z,28.77
2023-02-25T11:10:28.902Z,28.66
2023-02-25T11:15:46.872Z,28.55
2023-02-25T11:20:43.372Z,28.45
2023-02-25T11:25:50.603Z,28.14
2023-02-25T11:30:57.886Z,28.55
2023-02-25T11:36:04.944Z,28.47
2023-02-25T11:41:12.157Z,28.36
2023-02-25T11:46:19.423Z,28.43
2023-02-25T11:51:26.548Z,28.24
2023-02-25T11:56:33.790Z,28.32
2023-02-25T12:01:40.986Z,28.47
2023-02-25T12:06:48.465Z,28.42
2023-02-25T12:11:55.683Z,27.13
2023-02-25T12:17:02.980Z,27.20
2023-02-25T12:22:10.125Z,27.21
2023-02-25T12:27:17.297Z,27.38
2023-02-25T12:32:24.548Z,27.02
2023-02-25T12:37:31.671Z,27.10
2023-02-25T12:42:38.841Z,26.82
2023-02-25T12:47:46.106Z,26.81
2023-02-25T12:52:53.318Z,26.67
2023-02-25T12:58:00.516Z,26.04
2023-02-25T13:03:07.769Z,26.37
2023-02-25T13:08:14.970Z,26.44
2023-02-25T13:13:22.215Z,26.41
2023-02-25T13:18:29.500Z,26.32
2023-02-25T13:23:36.678Z,26.68
2023-02-25T13:28:44.143Z,26.50
2023-02-25T13:33:51.535Z,26.23
2023-02-25T13:38:58.706Z,25.36
2023-02-25T13:44:05.935Z,25.23
2023-02-25T13:49:13.202Z,26.49
2023-02-25T13:54:20.435Z,26.50
2023-02-25T13:59:27.644Z,26.60
2023-02-25T14:04:35.143Z,26.68
2023-02-25T14:09:42.393Z,26.39
2023-02-25T14:14:49.577Z,26.10
2023-02-25T14:19:57.038Z,26.03
2023-02-25T14:25:05.550Z,26.07
2023-02-25T14:30:12.942Z,26.17
2023-02-25T14:35:20.234Z,26.13
2023-02-25T14:40:27.678Z,26.10
2023-02-25T14:45:35.063Z,26.06
2023-02-25T14:50:42.624Z,25.96
2023-02-25T14:55:49.898Z,25.88
2023-02-25T15:00:57.154Z,25.77
2023-02-25T15:06:04.673Z,25.75
2023-02-25T15:11:12.343Z,25.65
2023-02-25T15:16:19.780Z,25.61
2023-02-25T15:21:26.990Z,25.55
2023-02-25T15:26:34.204Z,25.51
2023-02-25T15:31:41.656Z,25.71
2023-02-25T15:36:49.115Z,25.70
2023-02-25T15:41:56.429Z,25.68
2023-02-25T15:47:03.626Z,25.64
2023-02-25T15:52:10.821Z,25.75
2023-02-25T15:57:18.309Z,25.69
2023-02-25T16:02:25.923Z,25.75
2023-02-25T16:07:33.573Z,25.85
2023-02-25T16:12:42.159Z,25.75
2023-02-25T16:17:48.533Z,26.33
2023-02-25T16:22:56.018Z,26.48
2023-02-25T16:28:03.531Z,26.31
2023-02-25T16:33:11.008Z,26.32
2023-02-25T16:38:18.287Z,26.29
2023-02-25T16:43:25.715Z,26.34
2023-02-25T16:48:33.335Z,26.45
2023-02-25T16:53:40.910Z,26.81
2023-02-25T16:58:48.453Z,26.87
2023-02-25T17:03:56.093Z,26.93
2023-02-25T17:09:03.600Z,26.85
2023-02-25T17:14:10.997Z,27.09
2023-02-25T17:19:18.398Z,26.96
2023-02-25T17:24:25.886Z,25.74
2023-02-25T17:29:33.424Z,25.70
2023-02-25T17:34:41.051Z,25.61
2023-02-25T17:39:48.793Z,25.28
2023-02-25T17:44:56.371Z,25.29
2023-02-25T17:50:03.986Z,25.11
2023-02-25T17:55:11.420Z,25.07
2023-02-25T18:00:18.891Z,25.00
2023-02-25T18:05:26.524Z,24.78
2023-02-25T18:10:34.170Z,24.79
2023-02-25T18:15:42.911Z,24.83
2023-02-25T18:20:50.498Z,24.91
2023-02-25T18:25:58.135Z,24.92
2023-02-25T18:31:05.735Z,24.92
2023-02-25T18:36:13.021Z,25.02
2023-02-25T18:41:20.669Z,24.84
2023-02-25T18:46:28.488Z,24.82
2023-02-25T18:51:35.972Z,24.77
2023-02-25T18:56:43.610Z,24.85
2023-02-25T19:01:51.309Z,24.90
2023-02-25T19:06:58.708Z,24.78
2023-02-25T19:12:06.351Z,24.81
2023-02-25T19:17:13.948Z,24.99
2023-02-25T19:22:21.556Z,24.96
2023-02-25T19:27:29.198Z,24.86
2023-02-25T19:32:36.789Z,25.23
2023-02-25T19:37:44.402Z,24.86
2023-02-25T19:42:52.043Z,24.97
2023-02-25T19:47:59.356Z,24.96
2023-02-25T19:53:06.930Z,25.86
2023-02-25T19:58:14.533Z,25.12
2023-02-25T20:03:22.165Z,25.37
2023-02-25T20:08:29.524Z,24.96
2023-02-25T20:13:37.009Z,24.89
2023-02-25T20:18:44.308Z,24.83
2023-02-25T20:23:51.495Z,24.94
2023-02-25T20:28:59.036Z,24.83
2023-02-25T20:34:06.733Z,24.86
2023-02-25T20:39:14.342Z,24.79
2023-02-25T20:44:22.291Z,24.75
2023-02-25T20:49:29.891Z,24.82
2023-02-25T20:54:37.597Z,25.00
2023-02-25T20:59:45.226Z,26.04
2023-02-25T21:04:52.579Z,25.38
2023-02-25T21:09:59.898Z,25.11
2023-02-25T21:15:07.471Z,24.80
2023-02-25T21:20:15.659Z,24.66
2023-02-25T21:25:23.083Z,24.65
2023-02-25T21:30:30.850Z,24.44
2023-02-25T21:35:38.409Z,24.25
2023-02-25T21:40:46.023Z,24.06
2023-02-25T21:45:53.437Z,23.93
2023-02-25T21:51:00.568Z,24.76
2023-02-25T21:56:08.043Z,24.25
2023-02-25T22:01:15.771Z,24.50
2023-02-25T22:06:23.862Z,25.76
2023-02-25T22:11:30.785Z,25.22
2023-02-25T22:16:38.503Z,25.11
2023-02-25T22:21:45.719Z,24.89
2023-02-25T22:26:52.931Z,24.92
2023-02-25T22:32:00.421Z,24.86
2023-02-25T22:37:07.358Z,24.79
2023-02-25T22:42:14.604Z,24.88
2023-02-25T22:47:21.812Z,24.55
2023-02-25T22:52:28.974Z,24.40
2023-02-25T22:57:36.144Z,24.53
2023-02-25T23:02:43.390Z,24.01
2023-02-25T23:07:50.515Z,24.55
2023-02-25T23:12:57.682Z,24.46
2023-02-25T23:18:04.925Z,23.83
2023-02-25T23:23:12.066Z,23.31
2023-02-25T23:28:19.261Z,22.74
2023-02-25T23:33:26.458Z,22.74
2023-02-25T23:38:33.623Z,22.74
2023-02-25T23:43:40.820Z,22.10
2023-02-25T23:48:48.020Z,21.00
2023-02-25T23:53:55.200Z,23.42
2023-02-25T23:59:02.354Z,22.44
